Time;durP1;ratioP1;P1;durP2;ratioP2;P2;SDS_P1;SDS_P2;PMS_P1;PMS_P2;Temp;Humidity;BMP_temperature;BMP_pressure;BME280_temperature;BME280_humidity;BME280_pressure;Samples;Min_cycle;Max_cycle;Signal;HPM_P1;HPM_P2
2022/01/09 00:01:01;;;;;;;12.55;5.72;;;;;;;-3.21;65.23;100425.84;6095240;23;20033;-77
2022/01/09 00:03:27;;;;;;;14.75;5.60;;;;;;;-3.42;65.44;100392.41;6144292;23;20033;-79
2022/01/09 00:05:53;;;;;;;12.63;5.45;;;;;;;-3.36;65.37;100408.03;6114106;23;20029;-81
2022/01/09 00:08:18;;;;;;;13.65;5.53;;;;;;;-3.23;65.74;100422.34;6084292;23;20032;-77
2022/01/09 00:10:47;;;;;;;9.68;5.18;;;;;;;-3.31;65.27;100417.59;6106256;23;20022;-76
2022/01/09 00:13:13;;;;;;;10.68;5.03;;;;;;;-3.27;65.44;100429.72;6114852;23;20021;-78
2022/01/09 00:15:39;;;;;;;11.27;5.10;;;;;;;-3.36;65.52;100428.38;6068196;23;20021;-77
2022/01/09 00:18:05;;;;;;;9.75;5.63;;;;;;;-3.36;65.19;100447.88;6123401;23;20066;-79
2022/01/09 00:20:31;;;;;;;10.43;5.03;;;;;;;-3.42;65.35;100435.66;6099724;23;20018;-78
2022/01/09 00:22:57;;;;;;;10.88;5.15;;;;;;;-3.66;65.68;100400.41;6117165;23;20121;-77
2022/01/09 00:25:24;;;;;;;14.05;5.57;;;;;;;-3.59;65.74;100399.09;6108720;23;20022;-78
2022/01/09 00:27:51;;;;;;;10.20;4.57;;;;;;;-3.49;65.92;100423.41;6134844;23;20500;-76
2022/01/09 00:30:19;;;;;;;7.50;4.28;;;;;;;-3.66;65.68;100402.06;6108133;23;20021;-80
2022/01/09 00:32:45;;;;;;;14.32;5.30;;;;;;;-3.61;65.91;100410.84;6104350;23;20018;-78
2022/01/09 00:35:12;;;;;;;10.02;4.82;;;;;;;-3.67;65.67;100408.81;6134041;23;20022;-78
2022/01/09 00:37:38;;;;;;;10.00;4.20;;;;;;;-3.73;65.77;100402.47;6136710;23;20058;-78
2022/01/09 00:40:06;;;;;;;9.45;4.90;;;;;;;-3.75;65.55;100396.44;6130525;23;20528;-77
2022/01/09 00:42:32;;;;;;;10.18;4.50;;;;;;;-3.69;65.98;100402.75;6104653;23;20018;-77
2022/01/09 00:44:58;;;;;;;10.15;4.75;;;;;;;-3.81;65.62;100408.00;6131330;23;20487;-78
2022/01/09 00:47:24;;;;;;;10.77;4.30;;;;;;;-3.85;65.56;100388.28;6078363;23;20049;-77
2022/01/09 00:49:50;;;;;;;10.98;4.65;;;;;;;-3.87;65.76;100394.06;6125604;23;20024;-78
2022/01/09 00:52:16;;;;;;;13.43;5.07;;;;;;;-3.96;65.59;100381.66;6101863;23;20021;-80
2022/01/09 00:54:42;;;;;;;10.68;4.82;;;;;;;-4.03;66.23;100385.50;6099325;23;20479;-77
2022/01/09 00:57:07;;;;;;;11.85;4.72;;;;;;;-3.87;65.76;100399.16;6074642;23;20014;-77
2022/01/09 00:59:33;;;;;;;10.38;5.18;;;;;;;-4.19;65.85;100329.47;6122727;23;20017;-78
2022/01/09 01:01:59;;;;;;;10.20;4.78;;;;;;;-3.90;66.37;100388.78;6099178;23;20528;-77
2022/01/09 01:04:25;;;;;;;8.73;4.28;;;;;;;-3.91;65.46;100387.03;6123895;23;20022;-82
2022/01/09 01:06:51;;;;;;;13.70;5.82;;;;;;;-4.13;65.92;100360.34;6098697;23;20014;-81
2022/01/09 01:09:20;;;;;;;12.15;4.80;;;;;;;-3.88;66.45;100389.75;6093623;23;20028;-79
2022/01/09 01:11:47;;;;;;;10.38;4.80;;;;;;;-3.83;66.11;100385.81;6093511;23;20049;-78
2022/01/09 01:14:14;;;;;;;11.02;5.00;;;;;;;-3.92;65.62;100375.09;6095064;23;20535;-82
2022/01/09 01:16:40;;;;;;;10.40;5.07;;;;;;;-3.82;65.63;100396.09;6094059;23;20025;-78
2022/01/09 01:19:06;;;;;;;12.10;4.72;;;;;;;-3.76;66.02;100387.94;6094024;23;20318;-79
2022/01/09 01:21:33;;;;;;;8.57;3.65;;;;;;;-3.91;65.41;100344.66;6094942;23;20539;-77
2022/01/09 01:23:59;;;;;;;10.38;4.60;;;;;;;-3.73;66.10;100349.06;6086528;23;20033;-76
2022/01/09 01:26:25;;;;;;;8.13;4.15;;;;;;;-3.97;65.33;100326.53;6103886;23;20025;-80
2022/01/09 01:28:50;;;;;;;10.93;5.03;;;;;;;-3.86;65.80;100355.13;6093199;23;20049;-80
2022/01/09 01:31:16;;;;;;;11.93;5.60;;;;;;;-3.88;65.88;100367.75;6069378;23;20631;-76
2022/01/09 01:33:42;;;;;;;11.15;5.07;;;;;;;-3.92;65.65;100370.88;6069652;23;20021;-77
2022/01/09 01:36:08;;;;;;;10.60;4.80;;;;;;;-3.94;66.44;100360.63;6093004;23;20025;-80
2022/01/09 01:38:34;;;;;;;13.10;5.93;;;;;;;-3.92;66.20;100352.22;6094107;23;20121;-81
2022/01/09 01:41:00;;;;;;;12.63;5.50;;;;;;;-4.01;65.89;100334.75;6094850;23;20026;-77
2022/01/09 01:43:26;;;;;;;10.18;5.05;;;;;;;-3.93;66.28;100341.16;6094604;23;20471;-77
2022/01/09 01:45:52;;;;;;;10.52;5.43;;;;;;;-3.87;66.08;100330.47;6094733;23;20022;-76
2022/01/09 01:48:18;;;;;;;8.65;5.05;;;;;;;-3.83;65.99;100351.09;6117748;23;20379;-77
2022/01/09 01:50:46;;;;;;;9.45;5.03;;;;;;;-3.82;65.98;100367.22;6094171;23;20018;-79
2022/01/09 01:53:16;;;;;;;9.35;4.80;;;;;;;-4.12;65.76;100316.34;6093591;23;20069;-77
2022/01/09 01:55:44;;;;;;;10.20;4.80;;;;;;;-4.02;66.36;100333.88;6093687;23;20026;-76
2022/01/09 01:58:11;;;;;;;9.15;4.30;;;;;;;-4.01;65.82;100352.56;6103227;23;20018;-77
2022/01/09 02:00:41;;;;;;;12.23;4.63;;;;;;;-4.12;65.89;100336.69;6101372;23;20363;-80
2022/01/09 02:03:08;;;;;;;9.32;4.65;;;;;;;-4.09;66.35;100344.50;6093453;23;20021;-83
2022/01/09 02:05:34;;;;;;;12.85;4.75;;;;;;;-4.17;66.52;100333.84;6092701;23;20376;-78
2022/01/09 02:08:02;;;;;;;12.63;5.10;;;;;;;-4.13;66.09;100327.28;6093759;23;20018;-76
2022/01/09 02:10:28;;;;;;;10.90;4.88;;;;;;;-4.40;66.29;100281.66;6095821;23;20022;-78
2022/01/09 02:12:56;;;;;;;10.77;4.88;;;;;;;-4.24;66.48;100313.97;6096958;23;20028;-78
2022/01/09 02:15:32;;;;;;;10.95;5.28;;;;;;;-4.16;66.46;100309.31;6096709;23;20396;-76
2022/01/09 02:18:00;;;;;;;12.27;5.82;;;;;;;-4.07;66.35;100324.22;6105279;23;20033;-79
2022/01/09 02:20:26;;;;;;;11.00;5.72;;;;;;;-4.20;66.75;100297.22;6107481;23;20161;-75
2022/01/09 02:22:52;;;;;;;14.63;6.32;;;;;;;-4.10;66.17;100315.63;6106536;23;20025;-76
2022/01/09 02:25:18;;;;;;;15.65;7.05;;;;;;;-4.41;65.99;100267.22;6098572;23;20022;-76
2022/01/09 02:27:43;;;;;;;11.60;5.60;;;;;;;-4.32;65.99;100293.19;6096265;23;20022;-78
2022/01/09 02:30:10;;;;;;;10.32;5.10;;;;;;;-4.28;66.95;100290.00;6096970;23;20460;-76
2022/01/09 02:32:35;;;;;;;11.55;5.55;;;;;;;-4.13;66.74;100301.88;6104177;23;20040;-78
2022/01/09 02:35:03;;;;;;;12.13;6.43;;;;;;;-3.90;66.75;100320.13;6113804;23;20078;-78
2022/01/09 02:37:29;;;;;;;11.50;6.07;;;;;;;-3.88;66.61;100321.09;6098274;23;20028;-80
2022/01/09 02:39:55;;;;;;;13.45;5.80;;;;;;;-3.99;66.43;100308.63;6095834;23;20022;-79
2022/01/09 02:42:24;;;;;;;12.50;5.68;;;;;;;-4.03;66.94;100303.28;6119120;23;20026;-77
2022/01/09 02:44:52;;;;;;;13.93;6.50;;;;;;;-3.80;66.96;100330.03;6096449;23;20014;-80
2022/01/09 02:47:19;;;;;;;12.30;5.10;;;;;;;-4.05;66.11;100298.09;6097192;23;20456;-77
2022/01/09 02:49:51;;;;;;;12.32;4.97;;;;;;;-4.09;66.33;100286.03;6098378;23;20018;-77
2022/01/09 02:55:14;;;;;;;11.38;5.38;;;;;;;-4.20;65.73;100275.22;6088345;23;20534;-77
2022/01/09 02:57:42;;;;;;;12.85;5.38;;;;;;;-4.19;66.21;100298.97;6099266;23;20018;-79
2022/01/09 03:00:11;;;;;;;12.77;5.75;;;;;;;-4.27;66.98;100281.59;6072467;23;20022;-76
2022/01/09 03:02:37;;;;;;;17.85;5.80;;;;;;;-4.11;66.89;100308.78;6096460;23;20436;-78
2022/01/09 03:05:03;;;;;;;12.80;6.05;;;;;;;-4.13;66.07;100304.41;6096033;23;20456;-77
2022/01/09 03:07:31;;;;;;;13.35;6.60;;;;;;;-4.19;66.67;100293.88;6070674;23;20014;-78
2022/01/09 03:09:56;;;;;;;6.53;3.75;;;;;;;-4.34;65.62;100286.22;6096505;23;20025;-78
2022/01/09 03:12:23;;;;;;;11.25;5.45;;;;;;;-4.34;66.72;100289.66;6094211;23;20364;-80
2022/01/09 03:14:49;;;;;;;10.13;5.32;;;;;;;-4.30;67.03;100286.50;6093639;23;20029;-79
2022/01/09 03:17:15;;;;;;;11.48;5.55;;;;;;;-4.36;66.99;100273.44;6118686;23;20065;-80
2022/01/09 03:19:41;;;;;;;13.90;5.35;;;;;;;-4.19;66.49;100309.13;6123517;23;20499;-77
2022/01/09 03:22:07;;;;;;;13.68;5.20;;;;;;;-4.46;66.36;100279.66;6103928;23;20060;-76
2022/01/09 03:24:32;;;;;;;10.50;4.95;;;;;;;-4.35;66.13;100305.69;6046955;23;20029;-80
2022/01/09 03:26:58;;;;;;;11.90;4.90;;;;;;;-4.60;66.88;100260.16;6094548;23;20029;-78
2022/01/09 03:29:24;;;;;;;14.90;4.95;;;;;;;-4.54;66.92;100242.75;6094459;23;20018;-78
2022/01/09 03:31:50;;;;;;;10.13;4.25;;;;;;;-4.33;66.16;100301.59;6094366;23;20018;-79
2022/01/09 03:34:15;;;;;;;11.63;5.32;;;;;;;-4.27;66.84;100295.97;6096281;23;20113;-79
2022/01/09 03:36:41;;;;;;;10.00;5.05;;;;;;;-4.27;66.47;100284.13;6070226;23;20045;-77
2022/01/09 03:39:07;;;;;;;11.88;4.78;;;;;;;-4.25;66.41;100279.16;6096507;23;20106;-77
2022/01/09 03:41:33;;;;;;;14.05;5.35;;;;;;;-4.13;66.96;100291.72;6095736;23;20018;-79
2022/01/09 03:43:58;;;;;;;9.57;5.07;;;;;;;-4.17;66.00;100274.50;6104478;23;20029;-76
2022/01/09 03:46:24;;;;;;;9.80;4.13;;;;;;;-4.21;66.03;100275.13;6087798;23;20030;-78
2022/01/09 03:48:50;;;;;;;11.23;4.95;;;;;;;-4.17;66.21;100288.09;6094342;23;20101;-76
2022/01/09 03:51:16;;;;;;;13.50;5.43;;;;;;;-4.40;66.14;100257.13;6094115;23;20029;-77
2022/01/09 03:53:41;;;;;;;9.77;4.93;;;;;;;-4.32;65.98;100295.72;6095902;23;20018;-82
2022/01/09 03:56:07;;;;;;;9.02;4.65;;;;;;;-4.31;66.15;100283.88;6095486;23;20460;-80
2022/01/09 03:58:35;;;;;;;10.65;4.93;;;;;;;-4.28;66.44;100268.81;6095567;23;20014;-79
2022/01/09 04:01:06;;;;;;;12.52;5.18;;;;;;;-4.61;66.07;100215.22;6093569;23;20271;-79
2022/01/09 04:03:34;;;;;;;11.10;5.23;;;;;;;-4.17;66.46;100280.47;6094865;23;20018;-76
2022/01/09 04:06:01;;;;;;;11.02;4.97;;;;;;;-4.25;65.96;100264.78;6094190;23;20581;-79
2022/01/09 04:08:28;;;;;;;12.73;5.75;;;;;;;-4.30;65.70;100266.16;6070011;23;20018;-77
2022/01/09 04:10:54;;;;;;;14.32;5.40;;;;;;;-4.39;65.73;100258.03;6095755;23;20026;-77
2022/01/09 04:13:20;;;;;;;8.43;4.43;;;;;;;-4.29;66.09;100270.47;6094328;23;20018;-80
2022/01/09 04:15:47;;;;;;;12.63;5.32;;;;;;;-4.34;66.37;100265.91;6069808;23;20033;-77
2022/01/09 04:18:18;;;;;;;13.65;5.65;;;;;;;-4.32;66.25;100265.22;6096155;23;20018;-77
2022/01/09 04:20:44;;;;;;;12.63;5.50;;;;;;;-4.48;65.58;100240.56;6097398;23;20496;-79
2022/01/09 04:23:11;;;;;;;11.10;5.82;;;;;;;-4.54;65.86;100245.28;6100677;23;20028;-76
2022/01/09 04:25:39;;;;;;;10.90;5.45;;;;;;;-4.35;65.80;100266.69;6103899;23;20018;-78
2022/01/09 04:28:04;;;;;;;11.88;5.28;;;;;;;-4.36;66.03;100259.84;6102824;23;20042;-77
2022/01/09 04:30:30;;;;;;;13.18;5.60;;;;;;;-4.26;65.69;100270.63;6126613;23;20584;-78
2022/01/09 04:32:56;;;;;;;10.85;5.05;;;;;;;-4.22;65.64;100279.34;6124313;23;20018;-77
2022/01/09 04:35:22;;;;;;;11.23;4.50;;;;;;;-4.32;65.38;100265.22;6101129;23;20083;-80
2022/01/09 04:37:49;;;;;;;11.93;5.25;;;;;;;-4.20;66.13;100261.63;6099767;23;20042;-78
2022/01/09 04:40:17;;;;;;;10.40;5.65;;;;;;;-4.10;65.59;100264.78;6095648;23;20024;-80
2022/01/09 04:42:50;;;;;;;13.05;4.95;;;;;;;-4.01;65.11;100281.38;6103963;23;20032;-80
2022/01/09 04:45:17;;;;;;;8.68;4.50;;;;;;;-4.07;64.97;100275.91;6102684;23;20361;-77
2022/01/09 04:47:47;;;;;;;9.00;4.38;;;;;;;-4.12;64.64;100275.66;6105768;23;20029;-76
2022/01/09 04:50:21;;;;;;;9.45;4.25;;;;;;;-4.06;64.59;100285.31;6101447;23;20033;-79
2022/01/09 04:52:47;;;;;;;10.75;4.00;;;;;;;-4.05;65.20;100282.84;6102723;23;20258;-75
2022/01/09 04:55:13;;;;;;;8.73;3.95;;;;;;;-4.12;64.35;100265.50;6113462;23;20003;-76
2022/01/09 04:57:39;;;;;;;10.13;4.38;;;;;;;-4.25;64.97;100246.97;6078266;23;20424;-78
2022/01/09 05:00:06;;;;;;;10.07;4.72;;;;;;;-3.91;64.65;100280.22;6095140;23;20014;-79
2022/01/09 05:02:33;;;;;;;12.35;4.25;;;;;;;-3.84;64.40;100288.28;6095018;23;20018;-77
2022/01/09 05:04:59;;;;;;;10.88;4.20;;;;;;;-3.92;64.27;100283.56;6093822;23;20029;-79
2022/01/09 05:07:24;;;;;;;9.02;4.47;;;;;;;-3.97;64.03;100288.38;6099056;23;20017;-81
2022/01/09 05:09:50;;;;;;;8.50;3.72;;;;;;;-3.95;64.11;100280.06;6123416;23;20072;-79
2022/01/09 05:12:16;;;;;;;8.45;4.28;;;;;;;-3.94;63.93;100275.81;6125151;23;20013;-80
2022/01/09 05:14:42;;;;;;;9.23;4.03;;;;;;;-3.98;63.54;100276.47;6075589;23;20021;-78
2022/01/09 05:17:07;;;;;;;9.43;4.20;;;;;;;-3.95;63.37;100280.06;6122924;23;20014;-79
2022/01/09 05:19:35;;;;;;;9.00;3.95;;;;;;;-4.31;63.31;100221.22;6123728;23;20469;-78
2022/01/09 05:22:02;;;;;;;7.50;3.58;;;;;;;-4.06;63.07;100255.66;6122885;23;20452;-78
2022/01/09 05:24:29;;;;;;;12.52;4.85;;;;;;;-3.96;62.89;100267.22;6123261;23;20068;-76
2022/01/09 05:26:54;;;;;;;8.65;3.85;;;;;;;-4.26;62.55;100247.75;6098125;23;20018;-78
2022/01/09 05:29:22;;;;;;;10.52;4.60;;;;;;;-4.16;62.40;100268.66;6098122;23;20044;-77
2022/01/09 05:31:51;;;;;;;9.15;4.28;;;;;;;-4.17;62.33;100254.19;6098634;23;20091;-79
2022/01/09 05:34:17;;;;;;;10.48;4.80;;;;;;;-4.19;62.60;100238.81;6123790;23;20364;-79
2022/01/09 05:36:43;;;;;;;10.73;4.55;;;;;;;-4.22;62.14;100248.84;6098791;23;20018;-78
2022/01/09 05:39:08;;;;;;;9.68;3.80;;;;;;;-4.28;61.36;100256.97;6122813;23;20702;-78
2022/01/09 05:41:36;;;;;;;6.88;4.28;;;;;;;-4.25;61.48;100274.94;6129448;23;20017;-76
2022/01/09 05:44:02;;;;;;;9.18;4.47;;;;;;;-4.27;61.77;100266.34;6099878;23;20116;-78
2022/01/09 05:46:28;;;;;;;9.27;4.13;;;;;;;-4.40;61.29;100248.63;6100944;23;20396;-77
2022/01/09 05:48:53;;;;;;;9.40;4.70;;;;;;;-4.47;61.71;100246.50;6124317;23;20048;-76
2022/01/09 05:51:19;;;;;;;7.47;3.80;;;;;;;-4.37;61.27;100284.41;6101625;23;20021;-77
2022/01/09 05:53:46;;;;;;;11.20;4.93;;;;;;;-4.63;61.68;100244.75;6128579;23;20413;-78
2022/01/09 05:56:12;;;;;;;8.57;4.40;;;;;;;-4.64;61.37;100243.88;6100733;23;20466;-77
2022/01/09 05:58:39;;;;;;;8.45;3.88;;;;;;;-4.33;61.26;100288.00;6101184;23;20018;-77
2022/01/09 06:01:07;;;;;;;8.73;3.92;;;;;;;-4.30;61.26;100291.56;6091955;23;20030;-76
2022/01/09 06:03:33;;;;;;;8.88;4.25;;;;;;;-4.39;60.88;100273.25;6152723;23;20001;-77
2022/01/09 06:06:00;;;;;;;12.63;5.40;;;;;;;-4.34;61.16;100265.91;6150656;23;20017;-77
2022/01/09 06:08:26;;;;;;;9.93;4.10;;;;;;;-4.33;60.76;100273.63;6109015;23;20017;-76
2022/01/09 06:10:52;;;;;;;9.45;4.05;;;;;;;-4.21;60.67;100278.56;6082096;23;20018;-77
2022/01/09 06:13:18;;;;;;;8.80;4.10;;;;;;;-4.18;60.69;100280.38;6137773;23;20065;-76
2022/01/09 06:15:44;;;;;;;7.85;4.15;;;;;;;-4.08;60.31;100297.91;6131228;23;20022;-80
2022/01/09 06:18:12;;;;;;;7.45;3.50;;;;;;;-4.04;60.09;100296.44;6101614;23;20101;-77
2022/01/09 06:20:38;;;;;;;7.88;3.80;;;;;;;-4.03;59.80;100306.69;6126394;23;20018;-77
2022/01/09 06:23:05;;;;;;;9.50;3.90;;;;;;;-4.18;59.40;100290.56;6099969;23;20453;-79
2022/01/09 06:25:34;;;;;;;8.77;4.45;;;;;;;-4.06;59.76;100301.41;6125862;23;20108;-79
2022/01/09 06:28:00;;;;;;;7.28;3.90;;;;;;;-4.33;59.54;100266.00;6100199;23;20022;-78
2022/01/09 06:30:25;;;;;;;9.25;4.05;;;;;;;-4.08;59.98;100282.66;6127700;23;20059;-78
2022/01/09 06:32:51;;;;;;;8.65;4.00;;;;;;;-4.25;59.26;100253.75;6129721;23;20017;-80
2022/01/09 06:35:17;;;;;;;10.02;4.63;;;;;;;-4.06;59.37;100273.47;6079993;23;20014;-79
2022/01/09 06:37:45;;;;;;;8.57;3.92;;;;;;;-3.96;59.16;100288.47;6141315;23;20018;-77
2022/01/09 06:40:12;;;;;;;8.65;4.15;;;;;;;-4.00;59.36;100270.41;6113699;23;20021;-78
2022/01/09 06:42:38;;;;;;;7.78;3.58;;;;;;;-3.87;59.00;100290.66;6106152;23;20468;-77
2022/01/09 06:45:04;;;;;;;7.72;3.55;;;;;;;-3.90;58.56;100294.69;6126222;23;20017;-79
2022/01/09 06:47:30;;;;;;;8.70;3.85;;;;;;;-3.96;58.82;100269.78;6129276;23;20022;-75
2022/01/09 06:49:56;;;;;;;10.43;4.20;;;;;;;-3.75;58.97;100289.63;6132964;23;20018;-78
2022/01/09 06:52:22;;;;;;;8.60;4.15;;;;;;;-3.69;58.91;100287.38;6126422;23;20018;-79
2022/01/09 06:54:50;;;;;;;7.30;3.63;;;;;;;-3.73;58.65;100286.34;6106732;23;20120;-80
2022/01/09 06:57:16;;;;;;;8.75;3.60;;;;;;;-3.79;58.28;100289.44;6132893;23;20080;-79
2022/01/09 06:59:43;;;;;;;9.68;4.10;;;;;;;-3.89;57.93;100271.03;6101191;23;20021;-78
2022/01/09 07:02:14;;;;;;;8.25;3.33;;;;;;;-3.76;57.98;100309.06;6079437;23;20018;-76
2022/01/09 07:04:39;;;;;;;5.65;3.38;;;;;;;-3.76;57.76;100296.34;6128379;23;20024;-77
2022/01/09 07:07:05;;;;;;;10.20;3.30;;;;;;;-3.75;57.83;100297.25;6075878;23;20024;-80
2022/01/09 07:09:31;;;;;;;7.32;3.67;;;;;;;-3.96;57.89;100257.94;6126666;23;20026;-78
2022/01/09 07:11:59;;;;;;;7.68;3.78;;;;;;;-3.69;58.16;100288.28;6078599;23;20440;-77
2022/01/09 07:14:28;;;;;;;6.45;3.63;;;;;;;-3.55;57.86;100291.59;6111315;23;20034;-77
2022/01/09 07:16:56;;;;;;;9.98;3.50;;;;;;;-3.89;57.40;100235.41;6097173;23;20022;-79
2022/01/09 07:19:22;;;;;;;7.93;3.75;;;;;;;-3.49;58.13;100291.06;6106913;23;20018;-78
2022/01/09 07:21:48;;;;;;;10.40;4.43;;;;;;;-3.36;58.08;100285.84;6101209;23;20076;-78
2022/01/09 07:24:14;;;;;;;7.50;3.28;;;;;;;-3.30;57.39;100284.44;6125687;23;20089;-80
2022/01/09 07:26:40;;;;;;;6.40;3.38;;;;;;;-3.54;56.92;100265.38;6103503;23;20021;-80
2022/01/09 07:29:05;;;;;;;8.35;4.10;;;;;;;-3.40;57.31;100286.47;6110618;23;20113;-77
2022/01/09 07:31:31;;;;;;;7.60;3.92;;;;;;;-3.67;56.84;100238.38;6131042;23;20080;-81
2022/01/09 07:33:57;;;;;;;9.50;3.50;;;;;;;-3.63;56.24;100253.00;6100233;23;20097;-77
2022/01/09 07:36:27;;;;;;;6.88;3.78;;;;;;;-3.41;56.95;100287.25;6125543;23;20399;-81
2022/01/09 07:38:53;;;;;;;7.93;3.83;;;;;;;-3.40;56.88;100296.66;6075439;23;20456;-78
2022/01/09 07:41:20;;;;;;;8.60;4.15;;;;;;;-3.33;56.82;100286.03;6124584;23;20033;-79
2022/01/09 07:43:47;;;;;;;7.82;2.90;;;;;;;-3.50;55.87;100271.50;6075652;23;20017;-78
2022/01/09 07:46:15;;;;;;;9.48;4.40;;;;;;;-3.46;56.62;100270.88;6098706;23;20068;-81
2022/01/09 07:48:41;;;;;;;10.73;4.57;;;;;;;-3.35;56.75;100274.88;6076015;23;20163;-76
2022/01/09 07:51:06;;;;;;;6.63;3.53;;;;;;;-3.56;56.58;100263.50;6123022;23;20018;-76
2022/01/09 07:53:32;;;;;;;9.52;3.70;;;;;;;-3.36;56.25;100272.25;6125033;23;20028;-78
2022/01/09 07:55:58;;;;;;;8.40;4.00;;;;;;;-3.24;56.35;100265.28;6099210;23;20029;-78
2022/01/09 07:58:24;;;;;;;6.85;3.13;;;;;;;-3.14;56.13;100269.19;6050782;23;20010;-80
2022/01/09 08:00:50;;;;;;;10.70;3.90;;;;;;;-3.03;56.59;100290.13;6126150;23;20100;-78
2022/01/09 08:03:16;;;;;;;7.13;3.47;;;;;;;-2.99;56.70;100273.38;6100125;23;20051;-76
2022/01/09 08:05:42;;;;;;;6.85;3.60;;;;;;;-2.89;56.49;100273.94;6100454;23;20018;-77
2022/01/09 08:08:14;;;;;;;6.13;3.13;;;;;;;-2.77;56.09;100286.47;6070861;23;20044;-82
2022/01/09 08:10:39;;;;;;;;;;;;;;;-2.76;56.00;100283.09;6096064;23;20045;-80
2022/01/09 08:13:05;;;;;;;6.95;3.40;;;;;;;-2.86;55.91;100273.22;6095688;23;19952;-79
2022/01/09 08:15:34;;;;;;;5.90;3.22;;;;;;;-2.78;55.88;100278.72;6094773;23;20081;-78
2022/01/09 08:18:00;;;;;;;5.90;2.95;;;;;;;-2.91;55.90;100256.81;6095903;23;20014;-78
2022/01/09 08:20:28;;;;;;;7.30;3.60;;;;;;;-2.74;55.87;100263.66;6119724;23;20022;-79
2022/01/09 08:22:56;;;;;;;7.40;3.40;;;;;;;-2.68;55.74;100264.78;6122560;23;20024;-82
2022/01/09 08:25:45;;;;;;;7.68;3.60;;;;;;;-2.75;55.50;100244.06;6069821;23;20101;-77
2022/01/09 08:28:11;;;;;;;8.23;3.58;;;;;;;-2.64;55.01;100256.50;6111560;23;20013;-76
2022/01/09 08:30:37;;;;;;;6.43;3.05;;;;;;;-2.91;54.95;100210.97;6099756;23;20018;-80
2022/01/09 08:33:06;;;;;;;7.00;3.15;;;;;;;-2.66;55.63;100265.75;6101686;23;20022;-78
2022/01/09 08:35:32;;;;;;;8.60;3.42;;;;;;;-2.98;54.81;100212.31;6100516;23;20046;-77
2022/01/09 08:37:57;;;;;;;7.60;3.70;;;;;;;-2.71;54.93;100242.56;6101200;23;20511;-79
2022/01/09 08:40:23;;;;;;;7.78;3.95;;;;;;;-2.55;54.67;100257.00;6054906;23;20018;-78
2022/01/09 08:42:51;;;;;;;10.40;4.88;;;;;;;-2.38;55.22;100250.19;6058793;23;20050;-80
2022/01/09 08:45:17;;;;;;;9.23;5.30;;;;;;;-2.36;54.65;100250.28;6105490;23;20069;-78
2022/01/09 08:47:44;;;;;;;7.68;3.72;;;;;;;-2.45;53.65;100245.59;6099975;23;20026;-79
2022/01/09 08:50:14;;;;;;;7.80;3.63;;;;;;;-2.54;53.81;100271.50;6080832;23;20086;-78
2022/01/09 08:52:40;;;;;;;7.05;3.80;;;;;;;-2.75;54.38;100238.97;6074461;23;20048;-80
2022/01/09 08:55:07;;;;;;;7.97;4.32;;;;;;;-2.61;54.17;100259.22;6124625;23;20018;-79
2022/01/09 08:57:36;;;;;;;8.32;4.15;;;;;;;-2.62;54.36;100239.63;6077969;23;20041;-79
2022/01/09 09:00:07;;;;;;;10.27;4.22;;;;;;;-2.57;54.07;100258.59;6108247;23;20074;-77
2022/01/09 09:02:33;;;;;;;9.73;3.80;;;;;;;-2.78;54.01;100232.84;6102827;23;20025;-76
2022/01/09 09:04:59;;;;;;;12.77;5.15;;;;;;;-2.77;53.96;100232.06;6075397;23;20026;-75
2022/01/09 09:07:29;;;;;;;9.48;4.82;;;;;;;-2.82;54.23;100219.09;6106129;23;20192;-78
2022/01/09 09:09:55;;;;;;;9.13;4.30;;;;;;;-2.85;54.11;100221.47;6082514;23;20463;-78
2022/01/09 09:12:23;;;;;;;8.27;4.00;;;;;;;-2.80;54.43;100209.88;6128576;23;20105;-80
2022/01/09 09:14:49;;;;;;;8.05;4.22;;;;;;;-2.59;53.99;100255.06;6132035;23;20029;-83
2022/01/09 09:17:15;;;;;;;8.23;3.95;;;;;;;-3.11;54.12;100170.06;6103361;23;20109;-81
2022/01/09 09:19:46;;;;;;;9.43;4.43;;;;;;;-2.72;54.26;100210.25;6131519;23;20049;-81
2022/01/09 09:22:13;;;;;;;7.78;3.65;;;;;;;-2.68;54.17;100214.72;6104146;23;20341;-79
2022/01/09 09:24:41;;;;;;;8.75;3.58;;;;;;;-2.82;53.52;100175.78;6102209;23;20041;-81
2022/01/09 09:27:10;;;;;;;7.90;4.07;;;;;;;-2.65;54.02;100221.63;6103173;23;20535;-82
2022/01/09 09:29:55;;;;;;;7.10;3.85;;;;;;;-2.65;53.69;100230.16;6104216;23;20024;-80
2022/01/09 09:32:20;;;;;;;6.65;4.03;;;;;;;-2.66;53.64;100233.50;6130229;23;20037;-79
2022/01/09 09:34:46;;;;;;;8.05;4.20;;;;;;;-2.93;54.17;100204.91;6084505;23;20021;-78
2022/01/09 09:37:13;;;;;;;8.77;4.18;;;;;;;-2.86;54.32;100191.69;6111714;23;20049;-76
2022/01/09 09:39:39;;;;;;;7.30;3.95;;;;;;;-2.78;53.54;100205.72;6077957;23;20364;-79
2022/01/09 09:42:12;;;;;;;9.73;4.07;;;;;;;-2.92;53.21;100188.84;6077277;23;20165;-80
2022/01/09 09:44:37;;;;;;;7.13;4.03;;;;;;;-3.04;53.15;100199.25;6127568;23;20014;-80
2022/01/09 09:47:05;;;;;;;6.53;3.90;;;;;;;-3.25;53.83;100168.47;6101227;23;20018;-78
2022/01/09 09:49:31;;;;;;;8.13;3.63;;;;;;;-2.72;54.05;100239.13;6100066;23;20044;-78
2022/01/09 09:51:57;;;;;;;7.05;4.00;;;;;;;-3.10;53.12;100210.00;6125245;23;20022;-79
2022/01/09 09:54:22;;;;;;;8.10;4.03;;;;;;;-3.08;53.50;100212.63;6102599;23;20049;-79
2022/01/09 09:56:50;;;;;;;7.88;3.65;;;;;;;-2.90;53.32;100235.63;6101715;23;20372;-80
2022/01/09 09:59:23;;;;;;;7.38;3.63;;;;;;;-2.85;53.32;100236.75;6126919;23;20018;-75
2022/01/09 10:01:50;;;;;;;7.25;3.92;;;;;;;-3.37;53.07;100149.19;6127801;23;20017;-77
2022/01/09 10:04:15;;;;;;;6.38;3.65;;;;;;;-2.93;53.92;100187.97;6101545;23;20021;-79
2022/01/09 10:06:47;;;;;;;6.47;3.53;;;;;;;-2.60;53.83;100233.78;6101285;23;20024;-76
2022/01/09 10:09:21;;;;;;;9.32;3.97;;;;;;;-2.75;52.89;100205.84;6127170;23;20094;-78
2022/01/09 10:12:00;;;;;;;7.07;3.63;;;;;;;-2.90;53.43;100179.59;6103379;23;20464;-78
2022/01/09 10:14:33;;;;;;;7.05;3.53;;;;;;;-2.85;53.07;100226.56;6108404;23;20069;-74
2022/01/09 10:17:13;;;;;;;10.73;4.00;;;;;;;-2.90;53.38;100225.44;6102909;23;20360;-77
2022/01/09 10:19:45;;;;;;;;;;;;;;;-2.72;53.27;100223.00;6102026;23;20056;-79
2022/01/09 10:22:33;;;;;;;7.50;3.70;;;;;;;-2.64;53.43;100215.72;6101401;23;20343;-79
2022/01/09 10:25:36;;;;;;;7.45;3.80;;;;;;;-2.55;53.19;100217.88;6077126;23;20456;-77
2022/01/09 10:28:05;;;;;;;11.82;4.45;;;;;;;-2.55;52.21;100207.69;6077589;23;20424;-80
2022/01/09 10:30:43;;;;;;;10.20;5.55;;;;;;;-2.66;52.65;100212.22;6078883;23;20025;-78
2022/01/09 10:33:36;;;;;;;11.90;5.15;;;;;;;-2.68;52.87;100208.72;6103187;23;20235;-75
2022/01/09 10:36:06;;;;;;;8.20;4.18;;;;;;;-2.67;52.54;100202.84;6138431;23;20018;-77
2022/01/09 10:38:32;;;;;;;8.25;4.47;;;;;;;-2.66;53.00;100194.41;6136985;23;20020;-79
2022/01/09 10:41:02;;;;;;;7.75;4.00;;;;;;;-2.55;52.81;100213.66;6127481;23;20133;-79
2022/01/09 10:43:30;;;;;;;8.95;3.83;;;;;;;-2.54;52.91;100206.88;6101111;23;20025;-79
2022/01/09 10:45:58;;;;;;;8.30;3.78;;;;;;;-2.41;53.11;100211.78;6133693;23;20026;-77
2022/01/09 10:48:27;;;;;;;6.93;3.63;;;;;;;-2.51;52.51;100200.25;6116026;23;20097;-79
2022/01/09 10:50:53;;;;;;;7.40;3.53;;;;;;;-2.52;51.64;100208.69;6078261;23;20057;-78
2022/01/09 10:53:27;;;;;;;8.15;4.18;;;;;;;-2.66;52.34;100177.44;6127504;23;20374;-79
2022/01/09 10:56:20;;;;;;;6.55;3.83;;;;;;;-2.44;52.25;100198.91;6088453;23;20084;-76
2022/01/09 10:58:51;;;;;;;10.50;4.07;;;;;;;-2.62;52.34;100169.13;6118396;23;20459;-77
2022/01/09 11:01:25;;;;;;;10.13;4.10;;;;;;;-2.37;51.68;100200.94;6115775;23;20028;-80
2022/01/09 11:03:55;;;;;;;9.85;4.13;;;;;;;-2.73;51.29;100148.22;6113279;23;20428;-75
2022/01/09 11:06:24;;;;;;;9.63;4.80;;;;;;;-2.60;51.57;100171.78;6109700;23;20052;-76
2022/01/09 11:08:52;;;;;;;9.02;4.32;;;;;;;-2.75;51.43;100165.09;6094627;23;20039;-79
2022/01/09 11:11:25;;;;;;;6.57;3.60;;;;;;;-2.58;51.82;100167.63;6118424;23;20028;-79
2022/01/09 11:13:54;;;;;;;7.90;3.63;;;;;;;-2.88;51.70;100143.25;6096653;23;20017;-79
2022/01/09 11:16:38;;;;;;;9.40;4.43;;;;;;;-2.57;51.74;100160.06;6145771;23;20018;-75
2022/01/09 11:19:15;;;;;;;10.98;4.28;;;;;;;-2.52;51.77;100180.66;6145958;23;20036;-78
2022/01/09 11:21:55;;;;;;;9.63;4.13;;;;;;;-2.50;51.85;100158.69;6122279;23;20022;-79
2022/01/09 11:24:57;;;;;;;13.43;5.75;;;;;;;-2.21;51.83;100171.13;6147631;23;20022;-79
2022/01/09 11:27:32;;;;;;;19.30;8.40;;;;;;;-2.13;51.95;100180.91;6091238;23;20046;-78